Pagrindinis puslapis
METAR-TAF:

METAR-TAF

Oro uostai :

Mardin, Turkija

platuma: 37-13-58N, ilguma: 40-38-26E, Aukštis: 527 m

Dabartinis oras

Ataskaita buvo paskelbta 1 valandą ir 14 minutes, ne 07:50 UTC
Vėjas 14 kt iš Šiaurės su gūsio iki 24 kt, svyruoja nuo Šiaurės/Šiaurės Vakarų ir Šiaurės/Šiaurės Rytų
Temperatūra 14°C
Drėgmė 19%
Slėgis 1014 hPa
Matomumas 10 km arba daugiau
nėra debesų žemiau 1500 m ir nėra kamuolinių lietaus debesų

METAR: LTCR 260750Z 36014G24KT 330V030 CAVOK 14/M09 Q1014

Laikas: 12:04 (09:04 UTC)

Prognozė

Ataskaita buvo paskelbta 1 valandą ir 24 minutes, ne 07:40 UTC
Prognozė galioja nuo 26 metu 09 UTC su 26 metu 18 UTC
Vėjas 12 kt iš Šiaurės
Matomumas 10 km arba daugiau
nėra debesų žemiau 1500 m ir nėra kamuolinių lietaus debesų

TAF: LTCR 260740Z 2609/2618 35012KT CAVOK

Orai ataskaitas ir orų prognozės (METAR, TAF).

turimą stotys yra geltonos ir raudonos taškus žemėlapyje.

Perkelti pele per norėdami pamatyti stoties vardą.

Tada spustelėkite, norėdami matyti oro stebėjimo ir prognozės.

Norėdami pakeisti žemėlapį: spustelėkite ant žalios mygtukų su juodo kryžiaus žemyn,; žalią mygtuką su brūkšneliu, jei norite nutolinti; arba žalių rodyklių gretimoms žemėlapius.


METAR-TAF: